Time;durP1;ratioP1;P1;durP2;ratioP2;P2;SDS_P1;SDS_P2;PMS_P1;PMS_P2;Temp;Humidity;BMP_temperature;BMP_pressure;BME280_temperature;BME280_humidity;BME280_pressure;Samples;Min_cycle;Max_cycle;Signal;HPM_P1;HPM_P2
2023/04/28 00:01:44;;;;;;;;;;;12.50;97.90;;;;;;7343777;19;110942;-61
2023/04/28 00:04:11;;;;;;;;;;;12.70;97.70;;;;;;7337687;19;109730;-62
2023/04/28 00:06:38;;;;;;;;;;;12.80;97.50;;;;;;7336959;19;110393;-61
2023/04/28 00:09:09;;;;;;;;;;;12.80;97.60;;;;;;7333415;19;110788;-61
2023/04/28 00:11:37;;;;;;;;;;;12.90;97.50;;;;;;7335080;19;109840;-61
2023/04/28 00:14:04;;;;;;;;;;;12.90;97.70;;;;;;7336153;19;110051;-61
2023/04/28 00:16:32;;;;;;;;;;;12.90;97.90;;;;;;7334744;19;111239;-62
2023/04/28 00:18:59;;;;;;;;;;;12.90;97.40;;;;;;7337617;19;112041;-61
2023/04/28 00:21:27;;;;;;;;;;;13.00;97.70;;;;;;7336399;19;112522;-61
2023/04/28 00:23:54;;;;;;;;;;;13.00;97.40;;;;;;7343863;19;110077;-62
2023/04/28 00:26:21;;;;;;;;;;;13.00;97.60;;;;;;7333085;19;110387;-62
2023/04/28 00:28:48;;;;;;;;;;;13.00;97.70;;;;;;7336118;19;110272;-86
2023/04/28 00:31:16;;;;;;;;;;;12.90;98.60;;;;;;7337742;19;110002;-86
2023/04/28 00:33:43;;;;;;;;;;;12.90;98.00;;;;;;7333366;19;111650;-86
2023/04/28 00:36:10;;;;;;;;;;;12.90;98.00;;;;;;7330243;19;111563;-86
2023/04/28 00:38:37;;;;;;;;;;;12.90;98.50;;;;;;7335272;19;109790;-61
2023/04/28 00:41:05;;;;;;;;;;;12.90;98.20;;;;;;7335265;19;110598;-61
2023/04/28 00:43:43;;;;;;;;;;;12.90;99.60;;;;;;7335214;19;112866;-66
2023/04/28 00:46:11;;;;;;;;;;;12.70;99.40;;;;;;7342843;19;109999;-65
2023/04/28 00:48:38;;;;;;;;;;;12.60;99.70;;;;;;7333223;19;110262;-65
2023/04/28 00:51:06;;;;;;;;;;;12.40;99.60;;;;;;7335285;19;111131;-64
2023/04/28 00:53:33;;;;;;;;;;;12.40;99.60;;;;;;7333741;19;109706;-60
2023/04/28 00:56:00;;;;;;;;;;;12.40;99.90;;;;;;7337522;19;111334;-61
2023/04/28 00:58:29;;;;;;;;;;;12.40;99.90;;;;;;7339351;19;109609;-62
2023/04/28 01:01:06;;;;;;;;;;;12.30;99.90;;;;;;7335549;19;111844;-62
2023/04/28 01:03:34;;;;;;;;;;;12.30;99.90;;;;;;7333672;19;110130;-62
2023/04/28 01:06:02;;;;;;;;;;;12.40;99.90;;;;;;7331130;19;109710;-61
2023/04/28 01:08:30;;;;;;;;;;;12.40;99.90;;;;;;7341405;19;109754;-61
2023/04/28 01:10:59;;;;;;;;;;;12.40;99.90;;;;;;7331295;19;109821;-61
2023/04/28 01:13:26;;;;;;;;;;;12.50;99.60;;;;;;7338263;19;110270;-61
2023/04/28 01:15:56;;;;;;;;;;;12.50;99.80;;;;;;7334567;19;111244;-62
2023/04/28 01:18:24;;;;;;;;;;;12.60;99.40;;;;;;7334543;19;109835;-62
2023/04/28 01:20:51;;;;;;;;;;;12.60;99.50;;;;;;7334744;19;109446;-62
2023/04/28 01:23:18;;;;;;;;;;;12.70;99.90;;;;;;7333888;19;110190;-61
2023/04/28 01:25:45;;;;;;;;;;;12.70;99.60;;;;;;7335494;19;109919;-62
2023/04/28 01:28:12;;;;;;;;;;;12.70;99.40;;;;;;7331783;19;110467;-63
2023/04/28 01:30:39;;;;;;;;;;;12.70;99.50;;;;;;7339835;19;110815;-62
2023/04/28 01:33:06;;;;;;;;;;;12.70;99.90;;;;;;7334014;19;111749;-62
2023/04/28 01:35:33;;;;;;;;;;;12.70;99.70;;;;;;7334202;19;110781;-62
2023/04/28 01:38:01;;;;;;;;;;;12.70;99.60;;;;;;7332998;19;110018;-62
2023/04/28 01:40:28;;;;;;;;;;;12.70;99.90;;;;;;7328920;19;109561;-62
2023/04/28 01:42:55;;;;;;;;;;;12.70;99.90;;;;;;7334521;19;110996;-62
2023/04/28 01:45:22;;;;;;;;;;;12.60;99.90;;;;;;7333813;19;110086;-62
2023/04/28 01:47:48;;;;;;;;;;;12.50;99.90;;;;;;7335214;19;110352;-62
2023/04/28 01:50:15;;;;;;;;;;;12.50;99.90;;;;;;7333241;19;110097;-62
2023/04/28 01:52:42;;;;;;;;;;;12.50;99.90;;;;;;7339528;19;110670;-62
2023/04/28 01:55:10;;;;;;;;;;;12.60;99.90;;;;;;7331541;19;112483;-62
2023/04/28 01:57:36;;;;;;;;;;;12.60;99.90;;;;;;7337172;19;110038;-62
2023/04/28 02:00:04;;;;;;;;;;;12.70;99.90;;;;;;7336596;19;110277;-62
2023/04/28 02:02:31;;;;;;;;;;;12.70;99.90;;;;;;7335477;19;110428;-62
2023/04/28 02:04:58;;;;;;;;;;;12.70;99.90;;;;;;7335689;19;109822;-62
2023/04/28 02:07:25;;;;;;;;;;;12.70;99.90;;;;;;7332801;19;111099;-62
2023/04/28 02:09:52;;;;;;;;;;;12.70;99.90;;;;;;7333421;19;110629;-62
2023/04/28 02:12:19;;;;;;;;;;;12.70;99.90;;;;;;7336795;19;109635;-62
2023/04/28 02:14:46;;;;;;;;;;;12.70;99.90;;;;;;7336406;19;111154;-62
2023/04/28 02:17:13;;;;;;;;;;;12.70;99.90;;;;;;7333841;19;109743;-87
2023/04/28 02:19:40;;;;;;;;;;;12.70;99.90;;;;;;7328848;19;110149;-87
2023/04/28 02:22:07;;;;;;;;;;;12.70;99.90;;;;;;7327254;19;114538;-86
2023/04/28 02:24:35;;;;;;;;;;;12.70;99.90;;;;;;7329070;19;109617;-87
2023/04/28 02:27:03;;;;;;;;;;;12.60;99.90;;;;;;7329288;19;109828;-87
2023/04/28 02:29:30;;;;;;;;;;;12.60;99.90;;;;;;7327536;19;111251;-87
2023/04/28 02:31:58;;;;;;;;;;;12.50;99.90;;;;;;7327047;19;109785;-85
2023/04/28 02:34:25;;;;;;;;;;;12.50;99.90;;;;;;7331583;19;112866;-64
2023/04/28 02:36:52;;;;;;;;;;;12.50;99.90;;;;;;7331449;19;110773;-63
2023/04/28 02:39:21;;;;;;;;;;;12.50;99.90;;;;;;7329791;19;112306;-62
2023/04/28 02:41:48;;;;;;;;;;;12.50;99.90;;;;;;7330758;19;111250;-62
2023/04/28 02:44:15;;;;;;;;;;;12.30;99.90;;;;;;7332512;19;109630;-62
2023/04/28 02:46:42;;;;;;;;;;;12.30;99.90;;;;;;7330962;19;109809;-62
2023/04/28 02:49:10;;;;;;;;;;;12.40;99.90;;;;;;7331766;19;111670;-86
2023/04/28 02:51:37;;;;;;;;;;;12.40;99.90;;;;;;7328241;19;110733;-87
2023/04/28 02:54:04;;;;;;;;;;;12.40;99.90;;;;;;7328478;19;110539;-86
2023/04/28 02:56:31;;;;;;;;;;;12.50;99.90;;;;;;7337365;19;111311;-86
2023/04/28 02:58:58;;;;;;;;;;;12.50;99.90;;;;;;7333901;19;113022;-85
2023/04/28 03:01:25;;;;;;;;;;;12.50;99.90;;;;;;7330768;19;111878;-86
2023/04/28 03:03:52;;;;;;;;;;;12.60;99.90;;;;;;7334569;19;110591;-86
2023/04/28 03:06:20;;;;;;;;;;;12.60;99.90;;;;;;7331860;19;112019;-86
2023/04/28 03:08:47;;;;;;;;;;;12.60;99.90;;;;;;7332815;19;111443;-86
2023/04/28 03:11:14;;;;;;;;;;;12.60;99.90;;;;;;7333353;19;109350;-85
2023/04/28 03:13:41;;;;;;;;;;;12.60;99.90;;;;;;7334805;19;110661;-86
2023/04/28 03:16:08;;;;;;;;;;;12.60;99.90;;;;;;7331957;19;112020;-85
2023/04/28 03:18:35;;;;;;;;;;;12.60;99.90;;;;;;7335426;19;110302;-86
2023/04/28 03:21:02;;;;;;;;;;;12.60;99.90;;;;;;7333387;19;111776;-86
2023/04/28 03:23:29;;;;;;;;;;;12.60;99.90;;;;;;7331976;19;111256;-86
2023/04/28 03:25:56;;;;;;;;;;;12.60;99.90;;;;;;7337599;19;110322;-86
2023/04/28 03:28:23;;;;;;;;;;;12.60;99.90;;;;;;7334773;19;111422;-62
2023/04/28 03:30:50;;;;;;;;;;;12.60;99.90;;;;;;7338204;19;109976;-62
2023/04/28 03:33:18;;;;;;;;;;;12.60;99.90;;;;;;7338908;19;110288;-62
2023/04/28 03:35:45;;;;;;;;;;;12.60;99.90;;;;;;7340194;19;111913;-63
2023/04/28 03:38:12;;;;;;;;;;;12.60;99.90;;;;;;7340476;19;111820;-62
2023/04/28 03:40:39;;;;;;;;;;;12.60;99.90;;;;;;7343365;19;109984;-65
2023/04/28 03:43:06;;;;;;;;;;;12.60;99.90;;;;;;7337464;19;111810;-62
2023/04/28 03:45:33;;;;;;;;;;;12.60;99.90;;;;;;7336351;19;111633;-62
2023/04/28 03:48:00;;;;;;;;;;;12.60;99.90;;;;;;7338202;19;110506;-61
2023/04/28 03:50:27;;;;;;;;;;;12.60;99.90;;;;;;7338379;19;110476;-85
2023/04/28 03:52:54;;;;;;;;;;;12.60;99.90;;;;;;7337612;19;110612;-86
2023/04/28 03:55:21;;;;;;;;;;;12.60;99.90;;;;;;7332765;19;113097;-86
2023/04/28 03:57:48;;;;;;;;;;;12.60;99.90;;;;;;7328277;19;109661;-87
2023/04/28 04:00:15;;;;;;;;;;;12.60;99.90;;;;;;7332988;19;110147;-62
2023/04/28 04:02:42;;;;;;;;;;;12.70;99.90;;;;;;7339858;19;111907;-64
2023/04/28 04:05:10;;;;;;;;;;;12.70;99.90;;;;;;7336545;19;110627;-62
2023/04/28 04:07:37;;;;;;;;;;;12.70;99.90;;;;;;7331094;19;110796;-62
2023/04/28 04:10:04;;;;;;;;;;;12.70;99.90;;;;;;7336678;19;109437;-62
2023/04/28 04:12:31;;;;;;;;;;;12.70;99.90;;;;;;7335218;19;111711;-62
2023/04/28 04:14:58;;;;;;;;;;;12.70;99.90;;;;;;7337336;19;111584;-62
2023/04/28 04:17:25;;;;;;;;;;;12.70;99.90;;;;;;7334030;19;110569;-62
2023/04/28 04:19:52;;;;;;;;;;;12.70;99.90;;;;;;7335695;19;110412;-62
2023/04/28 04:22:19;;;;;;;;;;;12.70;99.90;;;;;;7340419;19;111460;-62
2023/04/28 04:24:46;;;;;;;;;;;12.70;99.90;;;;;;7335485;19;110320;-61
2023/04/28 04:27:16;;;;;;;;;;;12.70;99.90;;;;;;7334804;19;111294;-61
2023/04/28 04:29:46;;;;;;;;;;;12.70;99.90;;;;;;7335185;19;110272;-68
2023/04/28 04:32:13;;;;;;;;;;;12.70;99.90;;;;;;7335250;19;111195;-62
2023/04/28 04:34:40;;;;;;;;;;;12.70;99.90;;;;;;7334879;19;110221;-62
2023/04/28 04:37:08;;;;;;;;;;;12.70;99.90;;;;;;7335253;19;109395;-62
2023/04/28 04:39:35;;;;;;;;;;;12.80;99.90;;;;;;7335715;19;110110;-62
2023/04/28 04:42:02;;;;;;;;;;;12.70;99.90;;;;;;7334392;19;111768;-62
2023/04/28 04:44:49;;;;;;;;;;;12.70;99.90;;;;;;7342739;19;110579;-62
2023/04/28 04:47:16;;;;;;;;;;;12.80;99.90;;;;;;7337338;19;110661;-62
2023/04/28 04:49:43;;;;;;;;;;;12.80;99.90;;;;;;7333630;19;110092;-62
2023/04/28 04:52:10;;;;;;;;;;;12.80;99.90;;;;;;7336097;19;109582;-62
2023/04/28 04:54:37;;;;;;;;;;;12.80;99.90;;;;;;7334328;19;110585;-62
2023/04/28 04:57:04;;;;;;;;;;;12.80;99.90;;;;;;7336655;19;109456;-61
2023/04/28 04:59:31;;;;;;;;;;;12.80;99.90;;;;;;7334978;19;110283;-62
2023/04/28 05:01:58;;;;;;;;;;;12.80;99.90;;;;;;7336726;19;111310;-61
2023/04/28 05:04:25;;;;;;;;;;;12.80;99.90;;;;;;7333318;19;110880;-61
2023/04/28 05:06:53;;;;;;;;;;;12.80;99.90;;;;;;7343492;19;110354;-61
2023/04/28 05:09:20;;;;;;;;;;;12.90;99.90;;;;;;7331571;19;109725;-61
2023/04/28 05:11:47;;;;;;;;;;;12.90;99.90;;;;;;7337695;19;110376;-62
2023/04/28 05:14:14;;;;;;;;;;;12.90;99.90;;;;;;7334236;19;111525;-61
2023/04/28 05:16:41;;;;;;;;;;;12.90;99.90;;;;;;7334888;19;109608;-62
2023/04/28 05:19:09;;;;;;;;;;;13.00;99.90;;;;;;7330536;19;110496;-61
2023/04/28 05:21:36;;;;;;;;;;;13.00;99.90;;;;;;7332362;19;110346;-61
2023/04/28 05:24:03;;;;;;;;;;;13.00;99.90;;;;;;7330489;19;109875;-62
2023/04/28 05:26:30;;;;;;;;;;;12.90;99.90;;;;;;7332661;19;109980;-67
2023/04/28 05:28:57;;;;;;;;;;;13.00;99.90;;;;;;7339286;19;111017;-63
2023/04/28 05:31:24;;;;;;;;;;;13.00;99.90;;;;;;7329364;19;109374;-63
2023/04/28 05:33:51;;;;;;;;;;;13.00;99.90;;;;;;7330089;19;110564;-68
2023/04/28 05:36:18;;;;;;;;;;;13.00;99.90;;;;;;7333176;19;109900;-68
2023/04/28 05:38:46;;;;;;;;;;;13.00;99.90;;;;;;7331670;19;112283;-63
2023/04/28 05:41:13;;;;;;;;;;;13.00;99.90;;;;;;7331629;19;110772;-62
2023/04/28 05:43:43;;;;;;;;;;;13.00;99.90;;;;;;7330958;19;110001;-64
2023/04/28 05:46:10;;;;;;;;;;;13.00;99.90;;;;;;7332236;19;111468;-62
2023/04/28 05:48:55;;;;;;;;;;;13.10;99.90;;;;;;7319874;19;113607;-63
2023/04/28 05:51:23;;;;;;;;;;;13.00;99.90;;;;;;7330681;19;110299;-61
2023/04/28 05:53:50;;;;;;;;;;;13.00;99.90;;;;;;7334618;19;110138;-61
2023/04/28 05:56:17;;;;;;;;;;;13.00;99.90;;;;;;7335422;19;109590;-61
2023/04/28 05:58:44;;;;;;;;;;;13.00;99.90;;;;;;7335884;19;109978;-61
2023/04/28 06:01:11;;;;;;;;;;;13.00;99.90;;;;;;7331906;19;111846;-61
2023/04/28 06:03:40;;;;;;;;;;;13.00;99.90;;;;;;7334374;19;109310;-69
2023/04/28 06:06:08;;;;;;;;;;;13.00;99.90;;;;;;7335407;19;109990;-68
2023/04/28 06:08:36;;;;;;;;;;;13.00;99.90;;;;;;7336126;19;111122;-68
2023/04/28 06:11:03;;;;;;;;;;;13.10;99.90;;;;;;7337649;19;109372;-69
2023/04/28 06:13:30;;;;;;;;;;;13.10;99.90;;;;;;7339571;19;109657;-69
2023/04/28 06:15:58;;;;;;;;;;;13.10;99.90;;;;;;7336739;19;109553;-69
2023/04/28 06:18:25;;;;;;;;;;;13.10;99.90;;;;;;7332592;19;110009;-69
2023/04/28 06:20:52;;;;;;;;;;;13.10;99.90;;;;;;7337622;19;110670;-68
2023/04/28 06:23:19;;;;;;;;;;;13.20;99.90;;;;;;7330421;19;110014;-70
2023/04/28 06:25:46;;;;;;;;;;;13.20;99.90;;;;;;7337009;19;109455;-69
2023/04/28 06:28:13;;;;;;;;;;;13.20;99.90;;;;;;7335528;19;111163;-69
2023/04/28 06:30:40;;;;;;;;;;;13.20;99.90;;;;;;7338821;19;111716;-70
2023/04/28 06:33:08;;;;;;;;;;;13.30;99.90;;;;;;7346281;19;109476;-69
2023/04/28 06:35:37;;;;;;;;;;;13.30;99.90;;;;;;7341072;19;110071;-69
2023/04/28 06:38:05;;;;;;;;;;;13.30;99.90;;;;;;7340933;19;109702;-69
2023/04/28 06:40:32;;;;;;;;;;;13.40;99.90;;;;;;7341304;19;111815;-69
2023/04/28 06:42:59;;;;;;;;;;;13.40;99.90;;;;;;7340544;19;109679;-69
2023/04/28 06:45:26;;;;;;;;;;;13.50;99.90;;;;;;7341575;19;109519;-69
2023/04/28 06:47:56;;;;;;;;;;;13.50;99.90;;;;;;7340326;19;110342;-71
2023/04/28 06:50:23;;;;;;;;;;;13.50;99.90;;;;;;7337837;19;109778;-69
2023/04/28 06:52:50;;;;;;;;;;;13.50;99.90;;;;;;7341701;19;111745;-69
2023/04/28 06:55:18;;;;;;;;;;;13.60;99.90;;;;;;7345176;19;112286;-71
2023/04/28 06:57:45;;;;;;;;;;;13.60;99.90;;;;;;7341228;19;109524;-70
2023/04/28 07:00:12;;;;;;;;;;;13.70;99.90;;;;;;7339400;19;110750;-70
2023/04/28 07:02:39;;;;;;;;;;;13.70;99.90;;;;;;7340260;19;109698;-71
2023/04/28 07:05:07;;;;;;;;;;;13.70;99.90;;;;;;7338510;19;109512;-70
2023/04/28 07:07:35;;;;;;;;;;;13.80;99.90;;;;;;7340837;19;111628;-70
2023/04/28 07:10:03;;;;;;;;;;;13.80;99.90;;;;;;7339663;19;109436;-70
2023/04/28 07:12:30;;;;;;;;;;;13.90;99.90;;;;;;7340169;19;110901;-70
2023/04/28 07:14:57;;;;;;;;;;;13.90;99.90;;;;;;7341539;19;110489;-70
2023/04/28 07:17:24;;;;;;;;;;;13.90;99.90;;;;;;7342688;19;109802;-70
2023/04/28 07:19:51;;;;;;;;;;;14.00;99.90;;;;;;7340664;19;110379;-70
2023/04/28 07:22:18;;;;;;;;;;;14.00;99.90;;;;;;7336348;19;111535;-73
2023/04/28 07:24:45;;;;;;;;;;;14.10;99.90;;;;;;7339492;19;113938;-70
2023/04/28 07:27:12;;;;;;;;;;;14.20;99.90;;;;;;7338571;19;110137;-70
2023/04/28 07:29:39;;;;;;;;;;;14.20;99.90;;;;;;7341354;19;109433;-70
2023/04/28 07:32:09;;;;;;;;;;;14.30;99.90;;;;;;7339856;19;110348;-69
2023/04/28 07:34:36;;;;;;;;;;;14.30;99.90;;;;;;7340110;19;113528;-69
2023/04/28 07:37:04;;;;;;;;;;;14.40;99.90;;;;;;7339253;19;110013;-70
2023/04/28 07:39:33;;;;;;;;;;;14.50;99.90;;;;;;7345865;19;110117;-70
2023/04/28 07:42:01;;;;;;;;;;;14.60;99.90;;;;;;7337043;19;109625;-70
2023/04/28 07:44:30;;;;;;;;;;;14.70;99.90;;;;;;7340033;19;109552;-70
2023/04/28 07:46:57;;;;;;;;;;;14.70;99.90;;;;;;7339935;19;110761;-69
2023/04/28 07:49:25;;;;;;;;;;;14.70;99.90;;;;;;7338540;19;110234;-69
2023/04/28 07:51:54;;;;;;;;;;;14.80;99.90;;;;;;7341443;19;110660;-70
2023/04/28 07:54:21;;;;;;;;;;;14.90;99.90;;;;;;7337210;19;111698;-70
2023/04/28 07:56:48;;;;;;;;;;;14.90;99.90;;;;;;7338817;19;109867;-70
2023/04/28 07:59:17;;;;;;;;;;;15.00;99.90;;;;;;7337910;19;110914;-71
2023/04/28 08:01:44;;;;;;;;;;;15.10;99.90;;;;;;7341140;19;110290;-70
2023/04/28 08:04:11;;;;;;;;;;;15.10;99.90;;;;;;7336792;19;109921;-70
2023/04/28 08:06:39;;;;;;;;;;;15.20;99.90;;;;;;7339013;19;110304;-70
2023/04/28 08:09:06;;;;;;;;;;;15.20;99.90;;;;;;7336188;19;109311;-71
2023/04/28 08:11:33;;;;;;;;;;;15.30;99.90;;;;;;7339272;19;113233;-71
2023/04/28 08:14:01;;;;;;;;;;;15.40;99.90;;;;;;7337662;19;110266;-71
2023/04/28 08:16:29;;;;;;;;;;;15.40;99.90;;;;;;7337856;19;109522;-71
2023/04/28 08:18:57;;;;;;;;;;;15.50;99.90;;;;;;7337780;19;113339;-70
2023/04/28 08:21:25;;;;;;;;;;;15.60;99.90;;;;;;7336788;19;110099;-71
2023/04/28 08:23:52;;;;;;;;;;;15.70;99.90;;;;;;7342962;19;109266;-71
2023/04/28 08:26:20;;;;;;;;;;;15.80;99.90;;;;;;7337164;19;110093;-72
2023/04/28 08:28:47;;;;;;;;;;;15.80;99.90;;;;;;7334001;19;109887;-67
2023/04/28 08:31:14;;;;;;;;;;;15.80;99.90;;;;;;7336525;19;110029;-67
2023/04/28 08:33:43;;;;;;;;;;;15.90;99.90;;;;;;7337379;19;110411;-67
2023/04/28 08:36:13;;;;;;;;;;;15.90;99.90;;;;;;7337277;19;109348;-67
2023/04/28 08:38:41;;;;;;;;;;;16.00;99.90;;;;;;7332973;19;111622;-67
2023/04/28 08:41:08;;;;;;;;;;;16.10;99.90;;;;;;7338391;19;111190;-67
2023/04/28 08:43:35;;;;;;;;;;;16.10;99.90;;;;;;7341451;19;109520;-66
2023/04/28 08:46:05;;;;;;;;;;;16.20;99.90;;;;;;7335235;19;110138;-68
2023/04/28 08:48:38;;;;;;;;;;;16.20;99.90;;;;;;7338971;19;112684;-67
2023/04/28 08:51:05;;;;;;;;;;;16.20;99.90;;;;;;7337948;19;109912;-68
2023/04/28 08:53:35;;;;;;;;;;;16.40;99.90;;;;;;7334912;19;110194;-66
2023/04/28 08:56:23;;;;;;;;;;;16.40;99.90;;;;;;7335242;19;112028;-67
2023/04/28 08:58:52;;;;;;;;;;;16.50;99.90;;;;;;7340143;19;110085;-67
2023/04/28 09:01:19;;;;;;;;;;;16.60;99.90;;;;;;7335953;19;111136;-67
2023/04/28 09:03:47;;;;;;;;;;;16.60;99.90;;;;;;7337001;19;109472;-67
2023/04/28 09:06:15;;;;;;;;;;;16.70;99.90;;;;;;7341377;19;110216;-67
2023/04/28 09:08:42;;;;;;;;;;;16.80;99.90;;;;;;7336972;19;109959;-67
2023/04/28 09:11:12;;;;;;;;;;;16.80;99.90;;;;;;7333949;19;110281;-67
2023/04/28 09:13:39;;;;;;;;;;;16.90;99.90;;;;;;7334415;19;110525;-67
2023/04/28 09:16:06;;;;;;;;;;;17.00;99.90;;;;;;7332871;19;114789;-67
2023/04/28 09:18:33;;;;;;;;;;;17.00;99.90;;;;;;7335718;19;110195;-69
2023/04/28 09:21:07;;;;;;;;;;;17.00;99.90;;;;;;7336048;19;111072;-67
2023/04/28 09:23:45;;;;;;;;;;;17.20;99.90;;;;;;7334235;19;110791;-67
2023/04/28 09:26:12;;;;;;;;;;;17.30;99.90;;;;;;7335789;19;109878;-67
2023/04/28 09:28:39;;;;;;;;;;;17.30;99.90;;;;;;7340288;19;110690;-69
2023/04/28 09:31:20;;;;;;;;;;;17.50;99.90;;;;;;7334810;19;109594;-67
2023/04/28 09:33:57;;;;;;;;;;;17.50;99.90;;;;;;7336743;19;110951;-67
2023/04/28 09:36:31;;;;;;;;;;;17.50;99.90;;;;;;7334859;19;109518;-67
2023/04/28 09:38:59;;;;;;;;;;;17.50;99.90;;;;;;7335363;19;109574;-69
2023/04/28 09:41:39;;;;;;;;;;;17.40;99.90;;;;;;7334323;19;110637;-67
2023/04/28 09:44:17;;;;;;;;;;;17.50;99.90;;;;;;7334920;19;109765;-67
2023/04/28 09:46:45;;;;;;;;;;;17.50;99.90;;;;;;7333802;19;110244;-67
2023/04/28 09:49:13;;;;;;;;;;;17.60;99.90;;;;;;7334269;19;112107;-68
2023/04/28 09:51:40;;;;;;;;;;;17.60;99.90;;;;;;7338722;19;110892;-68
2023/04/28 09:54:07;;;;;;;;;;;17.70;99.90;;;;;;7334532;19;111765;-76
2023/04/28 09:56:37;;;;;;;;;;;17.70;99.90;;;;;;7335432;19;110017;-76
2023/04/28 09:59:05;;;;;;;;;;;17.80;99.90;;;;;;7336657;19;110049;-74
2023/04/28 10:01:37;;;;;;;;;;;17.70;99.90;;;;;;7332451;19;111602;-74
2023/04/28 10:04:06;;;;;;;;;;;17.80;99.90;;;;;;7335246;19;111188;-70
2023/04/28 10:06:35;;;;;;;;;;;17.80;99.90;;;;;;7342170;19;109465;-71
2023/04/28 10:09:02;;;;;;;;;;;17.90;99.90;;;;;;7339989;19;111150;-68
2023/04/28 10:11:29;;;;;;;;;;;18.00;99.90;;;;;;7343466;19;109893;-67
2023/04/28 10:13:56;;;;;;;;;;;18.10;99.90;;;;;;7345198;19;112785;-68
2023/04/28 10:16:24;;;;;;;;;;;18.10;99.90;;;;;;7342796;19;111869;-68
2023/04/28 10:18:52;;;;;;;;;;;18.20;99.90;;;;;;7341917;19;110124;-67
2023/04/28 10:21:20;;;;;;;;;;;18.20;99.90;;;;;;7339905;19;110166;-68
2023/04/28 10:23:59;;;;;;;;;;;18.20;99.90;;;;;;7341264;19;110596;-67
2023/04/28 10:26:47;;;;;;;;;;;18.30;99.90;;;;;;7343194;19;111893;-67
2023/04/28 10:29:14;;;;;;;;;;;18.20;99.90;;;;;;7342377;19;110292;-67
2023/04/28 10:32:01;;;;;;;;;;;18.10;99.90;;;;;;7344022;19;111578;-67
2023/04/28 10:34:28;;;;;;;;;;;18.00;99.90;;;;;;7346139;19;109208;-67
2023/04/28 10:36:58;;;;;;;;;;;18.00;99.90;;;;;;7341591;19;109611;-67
2023/04/28 10:39:25;;;;;;;;;;;17.90;99.90;;;;;;7343116;19;109747;-67
2023/04/28 10:41:52;;;;;;;;;;;17.90;99.90;;;;;;7341971;19;110098;-67
2023/04/28 10:44:43;;;;;;;;;;;17.80;99.90;;;;;;7339135;19;110237;-67
2023/04/28 10:47:10;;;;;;;;;;;17.80;99.90;;;;;;7340379;19;109505;-67
2023/04/28 10:49:59;;;;;;;;;;;17.90;99.90;;;;;;7340160;19;110155;-67
2023/04/28 10:52:36;;;;;;;;;;;17.90;99.90;;;;;;7341357;19;110778;-67
2023/04/28 10:55:22;;;;;;;;;;;17.90;99.90;;;;;;7338402;19;109460;-66
2023/04/28 10:58:09;;;;;;;;;;;18.00;99.90;;;;;;7344483;19;111331;-67
2023/04/28 11:00:36;;;;;;;;;;;17.90;99.90;;;;;;7340543;19;109317;-67
2023/04/28 11:03:03;;;;;;;;;;;18.00;99.90;;;;;;7337590;19;111215;-67
2023/04/28 11:05:32;;;;;;;;;;;18.00;99.90;;;;;;7341610;19;109380;-67
2023/04/28 11:08:17;;;;;;;;;;;18.00;99.90;;;;;;7339346;19;110331;-67
2023/04/28 11:11:03;;;;;;;;;;;18.00;99.90;;;;;;7337595;19;110119;-67
2023/04/28 11:13:33;;;;;;;;;;;17.90;99.90;;;;;;7341036;19;109622;-67
2023/04/28 11:16:03;;;;;;;;;;;17.90;99.90;;;;;;7337359;19;109400;-67
2023/04/28 11:18:52;;;;;;;;;;;17.90;99.90;;;;;;7341458;19;110584;-67
2023/04/28 11:21:22;;;;;;;;;;;17.90;99.90;;;;;;7347096;19;110676;-67
2023/04/28 11:23:49;;;;;;;;;;;18.00;99.90;;;;;;7337414;19;110651;-67
2023/04/28 11:26:17;;;;;;;;;;;17.90;99.90;;;;;;7341499;19;109452;-67
2023/04/28 11:28:47;;;;;;;;;;;18.00;99.90;;;;;;7340373;19;109445;-67
2023/04/28 11:31:18;;;;;;;;;;;18.00;99.90;;;;;;7340136;19;111123;-67
2023/04/28 11:33:46;;;;;;;;;;;18.00;99.90;;;;;;7340550;19;109538;-67
2023/04/28 11:36:26;;;;;;;;;;;18.10;99.90;;;;;;7337150;19;109570;-66
2023/04/28 11:38:55;;;;;;;;;;;18.20;99.90;;;;;;7340351;19;109961;-70
2023/04/28 11:41:23;;;;;;;;;;;18.20;99.90;;;;;;7337978;19;109505;-67
2023/04/28 11:43:50;;;;;;;;;;;18.00;99.90;;;;;;7345342;19;110543;-67
2023/04/28 11:46:21;;;;;;;;;;;18.00;99.90;;;;;;7337607;19;110021;-67
2023/04/28 11:48:49;;;;;;;;;;;18.00;99.90;;;;;;7340283;19;109901;-67
2023/04/28 11:51:44;;;;;;;;;;;17.90;99.90;;;;;;7338867;19;111165;-67
2023/04/28 11:54:13;;;;;;;;;;;17.80;99.90;;;;;;7338678;19;109849;-67
2023/04/28 11:56:41;;;;;;;;;;;17.90;99.90;;;;;;7338396;19;109937;-68
2023/04/28 11:59:09;;;;;;;;;;;17.90;99.90;;;;;;7338111;19;110674;-67
2023/04/28 12:01:45;;;;;;;;;;;17.90;99.90;;;;;;7339107;19;111889;-67
2023/04/28 12:04:13;;;;;;;;;;;18.00;99.90;;;;;;7338497;19;111834;-67
2023/04/28 12:06:40;;;;;;;;;;;17.90;99.90;;;;;;7343737;19;111353;-67
2023/04/28 12:09:24;;;;;;;;;;;17.80;99.90;;;;;;7339868;19;109196;-67
2023/04/28 12:11:56;;;;;;;;;;;17.80;99.90;;;;;;7339181;19;110180;-70
2023/04/28 12:14:23;;;;;;;;;;;17.80;99.90;;;;;;7338588;19;109852;-77
2023/04/28 12:16:51;;;;;;;;;;;17.70;99.90;;;;;;7339458;19;112754;-73
2023/04/28 12:19:19;;;;;;;;;;;17.70;99.90;;;;;;7337801;19;110101;-76
2023/04/28 12:22:02;;;;;;;;;;;17.70;99.90;;;;;;7340383;19;109308;-73
2023/04/28 12:24:30;;;;;;;;;;;17.70;99.90;;;;;;7338585;19;109394;-74
2023/04/28 12:27:30;;;;;;;;;;;17.50;99.90;;;;;;7336896;19;110447;-68
2023/04/28 12:29:57;;;;;;;;;;;17.50;99.90;;;;;;7344531;19;109718;-67
2023/04/28 12:32:40;;;;;;;;;;;17.40;99.90;;;;;;7338128;19;110084;-68
2023/04/28 12:35:08;;;;;;;;;;;17.40;99.90;;;;;;7337392;19;109819;-68
2023/04/28 12:37:36;;;;;;;;;;;17.40;99.90;;;;;;7338239;19;112596;-85
2023/04/28 12:40:05;;;;;;;;;;;17.30;99.90;;;;;;7340538;19;111139;-85
2023/04/28 12:42:37;;;;;;;;;;;17.20;99.90;;;;;;7342809;19;110100;-85
2023/04/28 12:45:05;;;;;;;;;;;17.20;99.90;;;;;;7338707;19;110281;-85
2023/04/28 12:47:32;;;;;;;;;;;17.20;99.90;;;;;;7342327;19;114692;-85
2023/04/28 12:49:59;;;;;;;;;;;17.20;99.90;;;;;;7343398;19;109944;-84
2023/04/28 12:52:26;;;;;;;;;;;17.20;99.90;;;;;;7338918;19;111626;-85
2023/04/28 12:54:53;;;;;;;;;;;17.20;99.90;;;;;;7339213;19;109927;-85
2023/04/28 12:57:20;;;;;;;;;;;17.30;99.90;;;;;;7338021;19;110291;-84
2023/04/28 12:59:47;;;;;;;;;;;17.20;99.90;;;;;;7339112;19;111163;-85
2023/04/28 13:02:18;;;;;;;;;;;17.30;99.90;;;;;;7340662;19;109469;-87
2023/04/28 13:04:46;;;;;;;;;;;17.30;99.90;;;;;;7337150;19;113619;-85
2023/04/28 13:07:14;;;;;;;;;;;17.40;99.90;;;;;;7337708;19;110065;-85
2023/04/28 13:09:42;;;;;;;;;;;17.40;99.90;;;;;;7340906;19;111158;-85
2023/04/28 13:12:10;;;;;;;;;;;17.30;99.90;;;;;;7344259;19;110388;-86
2023/04/28 13:14:41;;;;;;;;;;;17.30;99.90;;;;;;7340676;19;109708;-85
2023/04/28 13:17:09;;;;;;;;;;;17.20;99.90;;;;;;7339738;19;109665;-87
2023/04/28 13:19:38;;;;;;;;;;;17.30;99.90;;;;;;7338282;19;111128;-86
2023/04/28 13:22:07;;;;;;;;;;;17.20;99.90;;;;;;7334291;19;110198;-86
2023/04/28 13:24:35;;;;;;;;;;;17.20;99.90;;;;;;7337277;19;113589;-85
2023/04/28 13:27:03;;;;;;;;;;;17.10;99.90;;;;;;7336149;19;114956;-86
2023/04/28 13:29:30;;;;;;;;;;;17.10;99.90;;;;;;7336217;19;109501;-86
2023/04/28 13:31:57;;;;;;;;;;;17.10;99.90;;;;;;7339396;19;110428;-87
2023/04/28 13:34:24;;;;;;;;;;;17.10;99.90;;;;;;7341141;19;111160;-87
2023/04/28 13:36:52;;;;;;;;;;;17.10;99.90;;;;;;7337971;19;110044;-84
2023/04/28 13:39:20;;;;;;;;;;;17.10;99.90;;;;;;7334134;19;113662;-86
2023/04/28 13:41:48;;;;;;;;;;;17.10;99.90;;;;;;7336534;19;111086;-85
2023/04/28 13:44:15;;;;;;;;;;;17.00;99.90;;;;;;7337644;19;113468;-85
2023/04/28 13:46:42;;;;;;;;;;;17.00;99.90;;;;;;7337981;19;111628;-86
2023/04/28 13:49:09;;;;;;;;;;;17.00;99.90;;;;;;7338914;19;109389;-87
2023/04/28 13:51:37;;;;;;;;;;;16.90;99.90;;;;;;7338579;19;110670;-86
2023/04/28 13:54:07;;;;;;;;;;;16.90;99.90;;;;;;7334936;19;113992;-84
2023/04/28 13:56:35;;;;;;;;;;;16.90;99.90;;;;;;7343410;19;110031;-85
2023/04/28 13:59:02;;;;;;;;;;;16.90;99.90;;;;;;7337488;19;110999;-86
2023/04/28 14:01:29;;;;;;;;;;;16.90;99.90;;;;;;7335157;19;109408;-85
2023/04/28 14:03:56;;;;;;;;;;;16.90;99.90;;;;;;7335726;19;112666;-84
2023/04/28 14:06:26;;;;;;;;;;;16.90;99.90;;;;;;7335947;19;111713;-85
2023/04/28 14:08:55;;;;;;;;;;;16.90;99.90;;;;;;7337982;19;109923;-86
2023/04/28 14:11:22;;;;;;;;;;;16.90;99.90;;;;;;7336965;19;110176;-88
2023/04/28 14:13:49;;;;;;;;;;;16.80;99.90;;;;;;7337075;19;111419;-85